Time,TemperatureF,DewpointF,PressureIn,WindDirection,WindDirectionDegrees,WindSpeedMPH,WindSpeedGustMPH,Humidity,HourlyPrecipIn,Conditions,Clouds,dailyrainin,SoftwareType,DateUTC
2013-08-31 00:01:00,74.7,68.4,30.02,NE,37,2.0,3.0,81,0.00,,,0.05,meteohub,2013-08-31 10:01:00,
2013-08-31 00:06:00,74.7,68.4,30.02,NE,48,1.0,3.0,81,0.00,,,0.05,meteohub,2013-08-31 10:06:00,
2013-08-31 00:11:00,74.7,68.4,30.02,NE,44,0.0,4.0,81,0.00,,,0.05,meteohub,2013-08-31 10:11:00,
2013-08-31 00:16:00,74.7,68.4,30.02,ENE,68,0.0,4.0,81,0.00,,,0.05,meteohub,2013-08-31 10:16:00,
2013-08-31 00:21:00,74.5,68.5,30.02,NNE,32,1.0,4.0,82,0.00,,,0.05,meteohub,2013-08-31 10:21:00,
2013-08-31 00:26:00,74.5,68.2,30.02,NE,40,1.0,3.0,81,0.00,,,0.05,meteohub,2013-08-31 10:26:00,
2013-08-31 00:31:00,74.5,68.2,30.02,ENE,61,0.0,2.0,81,0.00,,,0.05,meteohub,2013-08-31 10:31:00,
2013-08-31 00:37:00,74.5,68.5,30.01,ENE,61,1.0,2.0,82,0.00,,,0.05,meteohub,2013-08-31 10:37:00,
2013-08-31 00:42:00,73.9,68.2,30.01,East,94,1.0,2.0,82,0.00,,,0.05,meteohub,2013-08-31 10:42:00,
2013-08-31 00:47:00,73.8,68.4,30.01,East,89,1.0,2.0,83,0.00,,,0.05,meteohub,2013-08-31 10:47:00,
2013-08-31 00:52:00,73.4,68.2,30.01,ESE,111,1.0,2.0,84,0.00,,,0.05,meteohub,2013-08-31 10:52:00,
2013-08-31 00:57:00,73.2,68.2,30.01,ESE,103,0.0,2.0,84,0.00,,,0.05,meteohub,2013-08-31 10:57:00,
2013-08-31 01:02:00,73.4,68.2,30.01,East,99,0.0,2.0,84,0.00,,,0.05,meteohub,2013-08-31 11:02:00,
2013-08-31 01:07:00,73.8,68.4,30.01,East,99,0.0,2.0,83,0.00,,,0.05,meteohub,2013-08-31 11:07:00,
2013-08-31 01:12:00,73.8,68.4,30.01,East,98,0.0,1.0,83,0.00,,,0.05,meteohub,2013-08-31 11:12:00,
2013-08-31 01:17:00,73.4,68.2,30.01,East,98,1.0,1.0,84,0.00,,,0.05,meteohub,2013-08-31 11:17:00,
2013-08-31 01:22:00,73.0,68.0,30.01,East,98,0.0,1.0,84,0.00,,,0.05,meteohub,2013-08-31 11:22:00,
2013-08-31 01:27:00,72.9,68.0,30.01,East,82,2.0,2.0,85,0.00,,,0.05,meteohub,2013-08-31 11:27:00,
2013-08-31 01:32:00,72.7,67.8,30.01,East,98,3.0,3.0,85,0.00,,,0.05,meteohub,2013-08-31 11:32:00,
2013-08-31 01:37:00,72.7,68.2,30.00,ESE,107,0.0,3.0,86,0.00,,,0.05,meteohub,2013-08-31 11:37:00,
2013-08-31 01:42:00,72.7,68.2,30.00,East,101,1.0,3.0,86,0.00,,,0.05,meteohub,2013-08-31 11:42:00,
2013-08-31 01:47:00,72.7,68.2,30.00,East,80,2.0,3.0,86,0.00,,,0.05,meteohub,2013-08-31 11:47:00,
2013-08-31 01:52:00,72.9,68.0,30.00,ENE,77,1.0,3.0,85,0.00,,,0.05,meteohub,2013-08-31 11:52:00,
2013-08-31 01:57:00,73.2,68.4,30.00,ENE,75,0.0,3.0,85,0.00,,,0.05,meteohub,2013-08-31 11:57:00,
2013-08-31 02:02:00,73.0,68.2,29.99,East,86,1.0,3.0,85,0.00,,,0.05,meteohub,2013-08-31 12:02:00,
2013-08-31 02:07:00,72.9,68.0,30.00,East,86,2.0,2.0,85,0.00,,,0.05,meteohub,2013-08-31 12:07:00,
2013-08-31 02:12:00,72.7,67.8,29.99,ESE,109,0.0,3.0,85,0.00,,,0.05,meteohub,2013-08-31 12:12:00,
2013-08-31 02:17:00,72.9,68.0,29.99,ENE,72,1.0,3.0,85,0.00,,,0.05,meteohub,2013-08-31 12:17:00,
2013-08-31 02:22:00,72.9,68.0,29.99,East,83,1.0,3.0,85,0.00,,,0.05,meteohub,2013-08-31 12:22:00,
2013-08-31 02:27:00,72.5,67.8,29.99,East,80,2.0,3.0,85,0.00,,,0.05,meteohub,2013-08-31 12:27:00,
2013-08-31 02:32:00,72.1,67.6,29.99,East,100,2.0,3.0,86,0.00,,,0.05,meteohub,2013-08-31 12:32:00,
2013-08-31 02:37:00,72.1,67.6,29.99,ENE,71,2.0,3.0,86,0.00,,,0.05,meteohub,2013-08-31 12:37:00,
2013-08-31 02:42:00,72.1,67.6,29.99,East,100,3.0,3.0,86,0.00,,,0.05,meteohub,2013-08-31 12:42:00,
2013-08-31 02:47:00,72.1,67.6,29.99,East,79,2.0,3.0,86,0.00,,,0.05,meteohub,2013-08-31 12:47:00,
2013-08-31 02:52:00,72.0,67.5,29.99,East,98,2.0,3.0,86,0.00,,,0.05,meteohub,2013-08-31 12:52:00,
2013-08-31 02:57:00,72.0,67.5,29.99,East,86,2.0,3.0,86,0.00,,,0.05,meteohub,2013-08-31 12:57:00,
2013-08-31 03:02:00,72.0,67.5,29.99,ESE,103,2.0,3.0,86,0.00,,,0.05,meteohub,2013-08-31 13:02:00,
2013-08-31 03:07:00,72.0,67.5,29.99,East,100,2.0,3.0,86,0.00,,,0.05,meteohub,2013-08-31 13:07:00,
2013-08-31 03:12:00,72.3,67.6,29.99,ESE,106,0.0,2.0,85,0.00,,,0.05,meteohub,2013-08-31 13:12:00,
2013-08-31 03:17:00,72.3,67.3,29.99,ENE,77,1.0,2.0,84,0.00,,,0.05,meteohub,2013-08-31 13:17:00,
2013-08-31 03:22:00,72.3,67.3,29.98,East,84,2.0,2.0,84,0.00,,,0.05,meteohub,2013-08-31 13:22:00,
2013-08-31 03:27:00,71.8,66.7,29.98,East,82,3.0,3.0,84,0.00,,,0.05,meteohub,2013-08-31 13:27:00,
2013-08-31 03:32:00,71.6,67.1,29.99,East,83,2.0,3.0,86,0.00,,,0.05,meteohub,2013-08-31 13:32:00,
2013-08-31 03:37:00,71.6,66.9,29.98,East,92,2.0,3.0,85,0.00,,,0.05,meteohub,2013-08-31 13:37:00,
2013-08-31 03:42:00,71.6,66.9,29.98,ESE,111,1.0,3.0,85,0.00,,,0.05,meteohub,2013-08-31 13:42:00,
2013-08-31 03:47:00,71.8,67.1,29.98,East,100,2.0,3.0,85,0.00,,,0.05,meteohub,2013-08-31 13:47:00,
2013-08-31 03:52:00,71.8,66.7,29.99,ESE,108,1.0,3.0,84,0.00,,,0.05,meteohub,2013-08-31 13:52:00,
2013-08-31 03:57:00,71.8,66.7,29.98,East,100,3.0,3.0,84,0.00,,,0.05,meteohub,2013-08-31 13:57:00,
2013-08-31 04:02:00,71.8,66.7,29.98,SE,124,2.0,3.0,84,0.00,,,0.05,meteohub,2013-08-31 14:02:00,
2013-08-31 04:07:00,72.0,66.9,29.99,ESE,104,3.0,3.0,84,0.00,,,0.05,meteohub,2013-08-31 14:07:00,
2013-08-31 04:12:00,72.1,67.1,29.98,East,98,2.0,4.0,84,0.00,,,0.05,meteohub,2013-08-31 14:12:00,
2013-08-31 04:17:00,72.1,67.1,29.98,East,87,1.0,4.0,84,0.00,,,0.05,meteohub,2013-08-31 14:17:00,
2013-08-31 04:22:00,72.1,66.7,29.98,East,93,2.0,4.0,83,0.00,,,0.05,meteohub,2013-08-31 14:22:00,
2013-08-31 04:27:00,72.0,66.9,29.99,ESE,107,2.0,3.0,84,0.00,,,0.05,meteohub,2013-08-31 14:27:00,
2013-08-31 04:32:00,72.0,66.9,29.98,ESE,116,3.0,3.0,84,0.00,,,0.05,meteohub,2013-08-31 14:32:00,
2013-08-31 04:37:00,72.1,67.1,29.98,ESE,106,2.0,3.0,84,0.00,,,0.05,meteohub,2013-08-31 14:37:00,
2013-08-31 04:42:00,72.1,67.1,29.99,ESE,108,3.0,3.0,84,0.00,,,0.05,meteohub,2013-08-31 14:42:00,
2013-08-31 04:47:00,72.1,67.1,29.99,ESE,114,2.0,3.0,84,0.00,,,0.05,meteohub,2013-08-31 14:47:00,
2013-08-31 04:52:00,72.1,67.1,29.99,ESE,103,2.0,4.0,84,0.00,,,0.05,meteohub,2013-08-31 14:52:00,
2013-08-31 04:57:00,72.3,66.9,29.99,ESE,113,3.0,4.0,83,0.00,,,0.05,meteohub,2013-08-31 14:57:00,
2013-08-31 05:02:00,72.1,66.7,29.99,ESE,120,2.0,5.0,83,0.00,,,0.05,meteohub,2013-08-31 15:02:00,
2013-08-31 05:07:00,72.1,66.7,29.99,East,94,1.0,5.0,83,0.00,,,0.05,meteohub,2013-08-31 15:07:00,
2013-08-31 05:12:00,72.0,66.6,29.99,ESE,110,2.0,5.0,83,0.00,,,0.05,meteohub,2013-08-31 15:12:00,
2013-08-31 05:17:00,72.1,66.7,29.99,ESE,119,5.0,6.0,83,0.00,,,0.05,meteohub,2013-08-31 15:17:00,
2013-08-31 05:22:00,72.1,66.7,29.99,ESE,122,0.0,6.0,83,0.00,,,0.05,meteohub,2013-08-31 15:22:00,
2013-08-31 05:27:00,72.1,66.7,29.99,SE,133,1.0,6.0,83,0.00,,,0.05,meteohub,2013-08-31 15:27:00,
2013-08-31 05:32:00,72.3,66.9,29.99,ESE,110,2.0,5.0,83,0.00,,,0.05,meteohub,2013-08-31 15:32:00,
2013-08-31 05:37:00,72.5,67.1,30.00,ESE,103,2.0,4.0,83,0.00,,,0.05,meteohub,2013-08-31 15:37:00,
2013-08-31 05:42:00,72.5,67.1,30.00,ESE,120,3.0,4.0,83,0.00,,,0.05,meteohub,2013-08-31 15:42:00,
2013-08-31 05:47:00,72.7,67.3,30.00,East,93,3.0,5.0,83,0.00,,,0.05,meteohub,2013-08-31 15:47:00,
2013-08-31 05:52:00,72.7,67.3,30.00,East,87,2.0,5.0,83,0.00,,,0.05,meteohub,2013-08-31 15:52:00,
2013-08-31 05:57:00,72.7,66.9,30.00,ESE,112,3.0,5.0,82,0.00,,,0.05,meteohub,2013-08-31 15:57:00,
2013-08-31 06:02:00,72.5,67.1,30.00,East,100,4.0,6.0,83,0.00,,,0.05,meteohub,2013-08-31 16:02:00,
2013-08-31 06:07:00,72.7,66.9,30.00,SE,124,2.0,6.0,82,0.00,,,0.05,meteohub,2013-08-31 16:07:00,
2013-08-31 06:12:00,72.3,66.6,30.00,ESE,116,4.0,6.0,82,0.00,,,0.05,meteohub,2013-08-31 16:12:00,
2013-08-31 06:17:00,72.3,66.6,30.00,ESE,110,2.0,5.0,82,0.00,,,0.05,meteohub,2013-08-31 16:17:00,
2013-08-31 06:22:00,72.3,66.6,30.00,ESE,110,2.0,5.0,82,0.00,,,0.05,meteohub,2013-08-31 16:22:00,
2013-08-31 06:27:00,72.3,66.6,30.00,ESE,102,3.0,5.0,82,0.00,,,0.05,meteohub,2013-08-31 16:27:00,
2013-08-31 06:32:00,72.7,66.9,30.00,ESE,103,5.0,5.0,82,0.00,,,0.05,meteohub,2013-08-31 16:32:00,
2013-08-31 06:37:00,73.2,67.1,30.01,SE,131,4.0,7.0,81,0.00,,,0.05,meteohub,2013-08-31 16:37:00,
2013-08-31 06:42:00,73.2,66.7,30.01,East,96,1.0,7.0,80,0.00,,,0.05,meteohub,2013-08-31 16:42:00,
2013-08-31 06:47:00,73.2,67.1,30.01,East,81,1.0,7.0,81,0.00,,,0.05,meteohub,2013-08-31 16:47:00,
2013-08-31 06:52:00,73.0,66.9,30.01,ENE,60,3.0,6.0,81,0.00,,,0.05,meteohub,2013-08-31 16:52:00,
2013-08-31 06:57:00,73.0,66.9,30.01,ENE,77,0.0,3.0,81,0.00,,,0.05,meteohub,2013-08-31 16:57:00,
2013-08-31 07:02:00,73.2,67.5,30.02,ESE,110,1.0,3.0,82,0.00,,,0.05,meteohub,2013-08-31 17:02:00,
2013-08-31 07:07:00,73.6,67.5,30.02,ESE,120,2.0,3.0,81,0.00,,,0.05,meteohub,2013-08-31 17:07:00,
2013-08-31 07:12:00,73.9,67.8,30.02,ESE,120,3.0,4.0,81,0.00,,,0.05,meteohub,2013-08-31 17:12:00,
2013-08-31 07:17:00,75.0,68.4,30.02,SE,129,3.0,4.0,80,0.00,,,0.05,meteohub,2013-08-31 17:17:00,
2013-08-31 07:22:00,75.9,68.5,30.01,ESE,113,2.0,5.0,78,0.00,,,0.05,meteohub,2013-08-31 17:22:00,
2013-08-31 07:27:00,76.8,68.7,30.02,SE,145,0.0,5.0,76,0.00,,,0.05,meteohub,2013-08-31 17:27:00,
2013-08-31 07:32:00,77.5,68.9,30.02,ESE,121,3.0,5.0,75,0.00,,,0.05,meteohub,2013-08-31 17:32:00,
2013-08-31 07:37:00,77.9,68.5,30.02,SE,139,1.0,5.0,73,0.00,,,0.05,meteohub,2013-08-31 17:37:00,
2013-08-31 07:42:00,78.6,69.6,30.02,SSE,156,0.0,4.0,74,0.00,,,0.05,meteohub,2013-08-31 17:42:00,
2013-08-31 07:47:00,79.5,70.2,30.02,WSW,249,1.0,3.0,73,0.00,,,0.05,meteohub,2013-08-31 17:47:00,
2013-08-31 07:52:00,78.6,69.6,30.03,West,277,3.0,4.0,74,0.00,,,0.05,meteohub,2013-08-31 17:52:00,
2013-08-31 07:57:00,77.5,69.8,30.03,West,279,3.0,5.0,77,0.00,,,0.05,meteohub,2013-08-31 17:57:00,
2013-08-31 08:02:00,77.2,69.4,30.03,WNW,285,3.0,6.0,77,0.00,,,0.05,meteohub,2013-08-31 18:02:00,
2013-08-31 08:07:00,77.2,69.8,30.03,SW,233,2.0,6.0,78,0.00,,,0.05,meteohub,2013-08-31 18:07:00,
2013-08-31 08:12:00,77.2,69.8,30.03,SW,231,2.0,5.0,78,0.00,,,0.05,meteohub,2013-08-31 18:12:00,
2013-08-31 08:17:00,77.2,69.8,30.03,WSW,243,3.0,5.0,78,0.00,,,0.05,meteohub,2013-08-31 18:17:00,
2013-08-31 08:22:00,77.4,70.0,30.03,WSW,243,1.0,5.0,78,0.00,,,0.05,meteohub,2013-08-31 18:22:00,
2013-08-31 08:27:00,77.9,69.8,30.03,West,263,2.0,4.0,76,0.00,,,0.05,meteohub,2013-08-31 18:27:00,
2013-08-31 08:32:00,78.1,70.0,30.03,West,266,2.0,5.0,76,0.00,,,0.05,meteohub,2013-08-31 18:32:00,
2013-08-31 08:38:00,77.5,70.2,30.04,NW,310,2.0,5.0,78,0.00,,,0.05,meteohub,2013-08-31 18:38:00,
2013-08-31 08:43:00,77.4,70.0,30.04,SSE,166,3.0,5.0,78,0.00,,,0.05,meteohub,2013-08-31 18:43:00,
2013-08-31 08:48:00,78.6,70.9,30.04,ESE,117,2.0,4.0,77,0.00,,,0.05,meteohub,2013-08-31 18:48:00,
2013-08-31 08:53:00,79.2,69.3,30.03,SE,134,1.0,6.0,72,0.00,,,0.05,meteohub,2013-08-31 18:53:00,
2013-08-31 08:58:00,79.5,68.9,30.03,ESE,118,4.0,8.0,70,0.00,,,0.05,meteohub,2013-08-31 18:58:00,
2013-08-31 09:03:00,79.9,69.3,30.03,SSE,159,5.0,8.0,70,0.00,,,0.05,meteohub,2013-08-31 19:03:00,
2013-08-31 09:08:00,80.1,68.9,30.03,SW,214,8.0,8.0,69,0.00,,,0.05,meteohub,2013-08-31 19:08:00,
2013-08-31 09:13:00,80.2,68.4,30.03,SW,226,6.0,8.0,67,0.00,,,0.05,meteohub,2013-08-31 19:13:00,
2013-08-31 09:18:00,80.6,69.4,30.03,SSW,201,2.0,9.0,69,0.00,,,0.05,meteohub,2013-08-31 19:18:00,
2013-08-31 09:23:00,81.0,69.4,30.03,West,261,3.0,9.0,68,0.00,,,0.05,meteohub,2013-08-31 19:23:00,
2013-08-31 09:28:00,80.4,68.5,30.03,WSW,256,8.0,9.0,67,0.00,,,0.05,meteohub,2013-08-31 19:28:00,
2013-08-31 09:33:00,80.2,68.4,30.03,West,281,3.0,10.0,67,0.00,,,0.05,meteohub,2013-08-31 19:33:00,
2013-08-31 09:38:00,80.4,68.0,30.02,WSW,249,5.0,10.0,66,0.00,,,0.05,meteohub,2013-08-31 19:38:00,
2013-08-31 09:43:00,80.4,68.0,30.03,SW,226,5.0,10.0,66,0.00,,,0.05,meteohub,2013-08-31 19:43:00,
2013-08-31 09:48:00,80.4,68.0,30.02,West,276,6.0,12.0,66,0.00,,,0.05,meteohub,2013-08-31 19:48:00,
2013-08-31 09:53:00,80.4,67.1,30.02,West,277,3.0,12.0,64,0.00,,,0.05,meteohub,2013-08-31 19:53:00,
2013-08-31 09:58:00,80.8,67.5,30.02,West,267,5.0,11.0,64,0.00,,,0.05,meteohub,2013-08-31 19:58:00,
2013-08-31 10:03:00,80.8,67.5,30.02,West,273,3.0,10.0,64,0.00,,,0.05,meteohub,2013-08-31 20:03:00,
2013-08-31 10:08:00,81.0,67.1,30.02,WSW,256,5.0,8.0,63,0.00,,,0.05,meteohub,2013-08-31 20:08:00,
2013-08-31 10:14:00,81.1,66.9,30.02,SW,229,3.0,8.0,62,0.00,,,0.05,meteohub,2013-08-31 20:14:00,
2013-08-31 10:19:00,81.5,66.7,30.02,SW,215,2.0,8.0,61,0.00,,,0.05,meteohub,2013-08-31 20:19:00,
2013-08-31 10:24:00,81.7,67.8,30.02,WSW,255,2.0,8.0,63,0.00,,,0.05,meteohub,2013-08-31 20:24:00,
2013-08-31 10:29:00,81.9,67.6,30.02,West,270,6.0,7.0,62,0.00,,,0.05,meteohub,2013-08-31 20:29:00,
2013-08-31 10:34:00,82.0,67.3,30.02,WSW,252,5.0,9.0,61,0.00,,,0.05,meteohub,2013-08-31 20:34:00,
2013-08-31 10:39:00,82.0,67.6,30.02,WNW,291,3.0,9.0,62,0.00,,,0.05,meteohub,2013-08-31 20:39:00,
2013-08-31 10:44:00,82.0,67.3,30.02,WSW,246,5.0,9.0,61,0.00,,,0.05,meteohub,2013-08-31 20:44:00,
2013-08-31 10:49:00,82.4,67.6,30.01,WSW,242,4.0,9.0,61,0.00,,,0.05,meteohub,2013-08-31 20:49:00,
2013-08-31 10:54:00,82.6,67.3,30.01,WSW,238,5.0,9.0,60,0.00,,,0.05,meteohub,2013-08-31 20:54:00,
2013-08-31 10:59:00,82.9,67.6,30.01,WSW,245,5.0,9.0,60,0.00,,,0.05,meteohub,2013-08-31 20:59:00,
2013-08-31 11:04:00,82.8,66.9,30.01,WSW,256,1.0,9.0,59,0.00,,,0.05,meteohub,2013-08-31 21:04:00,
2013-08-31 11:09:00,83.5,66.6,30.01,WSW,243,3.0,11.0,57,0.00,,,0.05,meteohub,2013-08-31 21:09:00,
2013-08-31 11:14:00,83.5,67.6,30.01,West,271,3.0,11.0,59,0.00,,,0.05,meteohub,2013-08-31 21:14:00,
2013-08-31 11:19:00,83.7,67.8,30.00,West,276,4.0,11.0,59,0.00,,,0.05,meteohub,2013-08-31 21:19:00,
2013-08-31 11:24:00,83.8,66.9,30.00,West,273,4.0,10.0,57,0.00,,,0.05,meteohub,2013-08-31 21:24:00,
2013-08-31 11:29:00,83.8,66.9,30.00,West,262,9.0,10.0,57,0.00,,,0.05,meteohub,2013-08-31 21:29:00,
2013-08-31 11:34:00,84.0,66.6,30.00,West,264,6.0,12.0,56,0.00,,,0.05,meteohub,2013-08-31 21:34:00,
2013-08-31 11:39:00,84.2,67.3,29.99,West,264,4.0,12.0,57,0.00,,,0.05,meteohub,2013-08-31 21:39:00,
2013-08-31 11:45:00,84.2,67.3,29.99,South,191,3.0,12.0,57,0.00,,,0.05,meteohub,2013-08-31 21:45:00,
2013-08-31 11:50:00,84.6,67.1,29.99,WNW,288,2.0,12.0,56,0.00,,,0.05,meteohub,2013-08-31 21:50:00,
2013-08-31 11:55:00,84.6,67.1,29.99,WSW,256,5.0,12.0,56,0.00,,,0.05,meteohub,2013-08-31 21:55:00,
2013-08-31 12:00:00,84.9,66.9,29.99,WSW,253,1.0,10.0,55,0.00,,,0.05,meteohub,2013-08-31 22:00:00,
2013-08-31 12:05:00,85.5,66.4,29.99,West,269,3.0,9.0,53,0.00,,,0.05,meteohub,2013-08-31 22:05:00,
2013-08-31 12:10:00,85.6,67.6,29.98,WSW,243,8.0,9.0,55,0.00,,,0.05,meteohub,2013-08-31 22:10:00,
2013-08-31 12:15:00,85.5,66.9,29.98,WNW,284,5.0,11.0,54,0.00,,,0.05,meteohub,2013-08-31 22:15:00,
2013-08-31 12:20:00,85.3,67.3,29.98,West,269,9.0,13.0,55,0.00,,,0.05,meteohub,2013-08-31 22:20:00,
2013-08-31 12:25:00,85.5,67.5,29.98,WSW,242,10.0,15.0,55,0.00,,,0.05,meteohub,2013-08-31 22:25:00,
2013-08-31 12:30:00,85.6,66.6,29.97,West,266,10.0,16.0,53,0.00,,,0.05,meteohub,2013-08-31 22:30:00,
2013-08-31 12:35:00,85.3,66.2,29.97,West,259,7.0,16.0,53,0.00,,,0.05,meteohub,2013-08-31 22:35:00,
2013-08-31 12:40:00,85.5,66.9,29.97,West,263,4.0,13.0,54,0.00,,,0.05,meteohub,2013-08-31 22:40:00,
2013-08-31 12:45:00,85.6,65.5,29.96,West,270,5.0,13.0,51,0.00,,,0.05,meteohub,2013-08-31 22:45:00,
2013-08-31 12:50:00,86.0,65.1,29.96,WNW,296,2.0,13.0,50,0.00,,,0.05,meteohub,2013-08-31 22:50:00,
2013-08-31 12:55:00,86.2,67.1,29.96,West,263,11.0,11.0,53,0.00,,,0.05,meteohub,2013-08-31 22:55:00,
2013-08-31 13:00:00,86.5,66.2,29.96,West,264,9.0,13.0,51,0.00,,,0.05,meteohub,2013-08-31 23:00:00,
2013-08-31 13:05:00,86.4,66.0,29.96,WNW,288,12.0,17.0,51,0.00,,,0.05,meteohub,2013-08-31 23:05:00,
2013-08-31 13:10:00,86.0,65.8,29.96,West,273,11.0,18.0,51,0.00,,,0.05,meteohub,2013-08-31 23:10:00,
2013-08-31 13:16:00,86.2,65.8,29.96,WSW,252,13.0,18.0,51,0.00,,,0.05,meteohub,2013-08-31 23:16:00,
2013-08-31 13:21:00,85.6,67.1,29.95,West,266,9.0,18.0,54,0.00,,,0.05,meteohub,2013-08-31 23:21:00,
2013-08-31 13:26:00,84.7,67.3,29.95,WNW,288,12.0,17.0,56,0.00,,,0.05,meteohub,2013-08-31 23:26:00,
2013-08-31 13:31:00,84.4,66.9,29.95,WNW,295,12.0,18.0,56,0.00,,,0.05,meteohub,2013-08-31 23:31:00,
2013-08-31 13:36:00,83.8,66.4,29.95,WNW,288,13.0,19.0,56,0.00,,,0.05,meteohub,2013-08-31 23:36:00,
2013-08-31 13:41:00,83.8,68.0,29.94,WNW,291,17.0,19.0,59,0.00,,,0.05,meteohub,2013-08-31 23:41:00,
2013-08-31 13:46:00,83.7,67.8,29.95,NW,321,17.0,24.0,59,0.00,,,0.05,meteohub,2013-08-31 23:46:00,
2013-08-31 13:51:00,83.5,67.1,29.95,West,278,6.0,24.0,58,0.00,,,0.05,meteohub,2013-08-31 23:51:00,
2013-08-31 13:56:00,83.1,70.2,29.94,WNW,294,22.0,24.0,65,0.00,,,0.05,meteohub,2013-08-31 23:56:00,
2013-08-31 14:01:00,82.0,68.2,29.95,West,262,13.0,27.0,63,0.00,,,0.05,meteohub,2013-09-01 00:01:00,
2013-08-31 14:06:00,82.6,67.8,29.94,West,259,13.0,27.0,61,0.00,,,0.00,meteohub,2013-09-01 00:06:00,
2013-08-31 14:11:00,83.1,69.3,29.94,West,266,7.0,27.0,63,0.00,,,0.00,meteohub,2013-09-01 00:11:00,
2013-08-31 14:16:00,82.9,69.1,29.94,WNW,288,7.0,22.0,63,0.00,,,0.00,meteohub,2013-09-01 00:16:00,
2013-08-31 14:21:00,83.1,68.7,29.94,WNW,286,4.0,19.0,62,0.00,,,0.00,meteohub,2013-09-01 00:21:00,
2013-08-31 14:26:00,83.7,69.3,29.94,West,275,10.0,19.0,62,0.00,,,0.00,meteohub,2013-09-01 00:26:00,
2013-08-31 14:31:00,83.7,70.2,29.94,NNW,327,11.0,19.0,64,0.00,,,0.00,meteohub,2013-09-01 00:31:00,
2013-08-31 14:37:00,83.1,70.2,29.94,WNW,296,12.0,28.0,65,0.00,,,0.00,meteohub,2013-09-01 00:37:00,
2013-08-31 14:42:00,82.8,71.1,29.94,NW,304,14.0,28.0,68,0.00,,,0.00,meteohub,2013-09-01 00:42:00,
2013-08-31 14:47:00,82.0,70.9,29.93,NNW,328,9.0,28.0,69,0.00,,,0.00,meteohub,2013-09-01 00:47:00,
2013-08-31 14:52:00,82.9,70.3,29.93,NW,309,15.0,23.0,66,0.00,,,0.00,meteohub,2013-09-01 00:52:00,
2013-08-31 14:57:00,82.6,70.9,29.93,NW,307,10.0,23.0,68,0.00,,,0.00,meteohub,2013-09-01 00:57:00,
2013-08-31 15:02:00,82.4,70.3,29.93,WNW,295,13.0,22.0,67,0.00,,,0.00,meteohub,2013-09-01 01:02:00,
2013-08-31 15:07:00,82.8,70.2,29.93,WNW,289,13.0,25.0,66,0.00,,,0.00,meteohub,2013-09-01 01:07:00,
2013-08-31 15:12:00,82.8,70.7,29.92,NNW,338,9.0,25.0,67,0.00,,,0.00,meteohub,2013-09-01 01:12:00,
2013-08-31 15:17:00,83.1,68.4,29.92,WNW,286,13.0,25.0,61,0.00,,,0.00,meteohub,2013-09-01 01:17:00,
2013-08-31 15:22:00,83.8,70.0,29.92,WNW,295,8.0,18.0,63,0.00,,,0.00,meteohub,2013-09-01 01:22:00,
2013-08-31 15:27:00,84.6,70.5,29.92,NNW,339,14.0,18.0,63,0.00,,,0.00,meteohub,2013-09-01 01:27:00,
2013-08-31 15:32:00,83.5,70.0,29.92,West,259,14.0,18.0,64,0.00,,,0.00,meteohub,2013-09-01 01:32:00,
2013-08-31 15:37:00,83.5,69.1,29.92,WNW,298,9.0,18.0,62,0.00,,,0.00,meteohub,2013-09-01 01:37:00,
2013-08-31 15:42:00,83.8,67.5,29.92,WSW,248,5.0,18.0,58,0.00,,,0.00,meteohub,2013-09-01 01:42:00,
2013-08-31 15:47:00,83.8,68.0,29.92,SSW,201,6.0,17.0,59,0.00,,,0.00,meteohub,2013-09-01 01:47:00,
2013-08-31 15:52:00,84.4,68.5,29.92,WNW,284,10.0,17.0,59,0.00,,,0.00,meteohub,2013-09-01 01:52:00,
2013-08-31 15:57:00,84.4,67.5,29.92,West,275,7.0,19.0,57,0.00,,,0.00,meteohub,2013-09-01 01:57:00,
2013-08-31 16:02:00,83.8,68.9,29.92,West,260,7.0,19.0,61,0.00,,,0.00,meteohub,2013-09-01 02:02:00,
2013-08-31 16:07:00,83.7,68.4,29.92,West,277,4.0,19.0,60,0.00,,,0.00,meteohub,2013-09-01 02:07:00,
2013-08-31 16:12:00,84.0,68.7,29.92,SW,233,8.0,15.0,60,0.00,,,0.00,meteohub,2013-09-01 02:12:00,
2013-08-31 16:17:00,83.7,68.7,29.92,WSW,250,6.0,12.0,61,0.00,,,0.00,meteohub,2013-09-01 02:17:00,
2013-08-31 16:22:00,83.5,68.5,29.92,WNW,284,7.0,15.0,61,0.00,,,0.00,meteohub,2013-09-01 02:22:00,
2013-08-31 16:27:00,83.7,68.4,29.92,WNW,300,7.0,15.0,60,0.00,,,0.00,meteohub,2013-09-01 02:27:00,
2013-08-31 16:32:00,83.5,69.1,29.92,West,274,9.0,14.0,62,0.00,,,0.00,meteohub,2013-09-01 02:32:00,
2013-08-31 16:37:00,83.1,69.3,29.92,NW,306,5.0,12.0,63,0.00,,,0.00,meteohub,2013-09-01 02:37:00,
2013-08-31 16:42:00,83.7,69.8,29.91,NW,308,7.0,12.0,63,0.00,,,0.00,meteohub,2013-09-01 02:42:00,
2013-08-31 16:47:00,82.6,69.6,29.92,West,270,7.0,12.0,65,0.00,,,0.00,meteohub,2013-09-01 02:47:00,
2013-08-31 16:52:00,82.2,69.3,29.92,NNW,327,10.0,13.0,65,0.00,,,0.00,meteohub,2013-09-01 02:52:00,
2013-08-31 16:57:00,82.2,68.9,29.91,West,269,5.0,13.0,64,0.00,,,0.00,meteohub,2013-09-01 02:57:00,
2013-08-31 17:02:00,82.0,68.7,29.92,WNW,293,9.0,13.0,64,0.00,,,0.00,meteohub,2013-09-01 03:02:00,
2013-08-31 17:07:00,81.3,69.3,29.92,West,280,13.0,16.0,67,0.00,,,0.00,meteohub,2013-09-01 03:07:00,
2013-08-31 17:12:00,81.3,68.4,29.92,NW,316,9.0,17.0,65,0.00,,,0.00,meteohub,2013-09-01 03:12:00,
2013-08-31 17:17:00,81.7,70.2,29.92,WNW,290,7.0,17.0,68,0.00,,,0.00,meteohub,2013-09-01 03:17:00,
2013-08-31 17:22:00,81.3,69.3,29.92,West,280,4.0,17.0,67,0.00,,,0.00,meteohub,2013-09-01 03:22:00,
2013-08-31 17:27:00,81.3,69.3,29.92,NW,319,4.0,14.0,67,0.00,,,0.00,meteohub,2013-09-01 03:27:00,
2013-08-31 17:32:00,81.7,69.3,29.92,NW,304,4.0,16.0,66,0.00,,,0.00,meteohub,2013-09-01 03:32:00,
2013-08-31 17:37:00,81.7,69.3,29.92,WNW,291,9.0,16.0,66,0.00,,,0.00,meteohub,2013-09-01 03:37:00,
2013-08-31 17:42:00,81.3,68.9,29.93,WNW,290,3.0,13.0,66,0.00,,,0.00,meteohub,2013-09-01 03:42:00,
2013-08-31 17:47:00,81.1,69.1,29.93,WNW,294,7.0,13.0,67,0.00,,,0.00,meteohub,2013-09-01 03:47:00,
2013-08-31 17:52:00,81.0,68.5,29.93,NW,309,3.0,16.0,66,0.00,,,0.00,meteohub,2013-09-01 03:52:00,
2013-08-31 17:57:00,81.1,69.1,29.93,NW,318,8.0,16.0,67,0.00,,,0.00,meteohub,2013-09-01 03:57:00,
2013-08-31 18:01:00,80.8,68.7,29.94,NNW,329,8.0,16.0,67,0.00,,,0.00,meteohub,2013-09-01 04:01:00,
2013-08-31 18:02:00,80.8,68.7,29.94,WNW,291,3.0,16.0,67,0.00,,,0.00,meteohub,2013-09-01 04:02:00,
2013-08-31 18:04:00,80.4,68.9,29.94,NW,307,4.0,16.0,68,0.00,,,0.00,meteohub,2013-09-01 04:04:00,
2013-08-31 18:09:00,80.1,69.4,29.94,NW,315,8.0,11.0,70,0.00,,,0.00,meteohub,2013-09-01 04:09:00,
2013-08-31 18:12:00,79.7,69.4,29.93,WNW,300,5.0,11.0,71,0.00,,,0.00,meteohub,2013-09-01 04:12:00,
2013-08-31 18:17:00,79.3,69.1,29.93,WNW,284,10.0,12.0,71,0.00,,,0.00,meteohub,2013-09-01 04:17:00,
2013-08-31 18:22:00,79.2,69.8,29.93,NW,325,2.0,18.0,73,0.00,,,0.00,meteohub,2013-09-01 04:22:00,
2013-08-31 18:28:00,79.0,69.3,29.94,WNW,288,5.0,18.0,72,0.00,,,0.00,meteohub,2013-09-01 04:28:00,
2013-08-31 18:33:00,79.0,68.7,29.94,WNW,300,4.0,18.0,71,0.00,,,0.00,meteohub,2013-09-01 04:33:00,
2013-08-31 18:38:00,79.0,69.3,29.94,WNW,296,4.0,10.0,72,0.00,,,0.00,meteohub,2013-09-01 04:38:00,
2013-08-31 18:43:00,78.8,69.1,29.94,West,278,2.0,9.0,72,0.00,,,0.00,meteohub,2013-09-01 04:43:00,
2013-08-31 18:48:00,78.6,69.3,29.94,WNW,290,5.0,9.0,73,0.00,,,0.00,meteohub,2013-09-01 04:48:00,
2013-08-31 18:53:00,78.4,69.1,29.94,NW,310,3.0,13.0,73,0.00,,,0.00,meteohub,2013-09-01 04:53:00,
2013-08-31 18:58:00,78.3,68.9,29.94,WNW,300,3.0,13.0,73,0.00,,,0.00,meteohub,2013-09-01 04:58:00,
2013-08-31 19:03:00,78.3,68.9,29.94,WNW,284,6.0,13.0,73,0.00,,,0.00,meteohub,2013-09-01 05:03:00,
2013-08-31 19:08:00,78.3,68.9,29.94,NW,308,4.0,8.0,73,0.00,,,0.00,meteohub,2013-09-01 05:08:00,
2013-08-31 19:13:00,78.1,68.7,29.95,WNW,300,3.0,8.0,73,0.00,,,0.00,meteohub,2013-09-01 05:13:00,
2013-08-31 19:18:00,78.1,68.7,29.95,WNW,296,1.0,8.0,73,0.00,,,0.00,meteohub,2013-09-01 05:18:00,
2013-08-31 19:23:00,77.9,68.9,29.95,West,277,1.0,8.0,74,0.00,,,0.00,meteohub,2013-09-01 05:23:00,
2013-08-31 19:28:00,77.7,68.7,29.95,NNE,30,0.0,8.0,74,0.00,,,0.00,meteohub,2013-09-01 05:28:00,
2013-08-31 19:33:00,77.5,68.5,29.95,WNW,298,6.0,6.0,74,0.00,,,0.00,meteohub,2013-09-01 05:33:00,
2013-08-31 19:38:00,77.5,68.5,29.95,NW,315,1.0,6.0,74,0.00,,,0.00,meteohub,2013-09-01 05:38:00,
2013-08-31 19:43:00,77.5,68.9,29.95,WNW,298,2.0,8.0,75,0.00,,,0.00,meteohub,2013-09-01 05:43:00,
2013-08-31 19:48:00,77.4,68.9,29.95,NE,43,1.0,8.0,75,0.00,,,0.00,meteohub,2013-09-01 05:48:00,
2013-08-31 19:54:00,77.2,68.7,29.96,WNW,287,2.0,8.0,75,0.00,,,0.00,meteohub,2013-09-01 05:54:00,
2013-08-31 19:59:00,77.2,68.7,29.96,NW,304,0.0,7.0,75,0.00,,,0.00,meteohub,2013-09-01 05:59:00,
2013-08-31 20:04:00,77.2,68.7,29.96,NW,318,0.0,4.0,75,0.00,,,0.00,meteohub,2013-09-01 06:04:00,
2013-08-31 20:09:00,77.0,68.5,29.96,NW,317,0.0,4.0,75,0.00,,,0.00,meteohub,2013-09-01 06:09:00,
2013-08-31 20:14:00,77.0,68.5,29.96,NW,318,0.0,3.0,75,0.00,,,0.00,meteohub,2013-09-01 06:14:00,
2013-08-31 20:19:00,76.8,68.4,29.96,North,358,0.0,3.0,75,0.00,,,0.00,meteohub,2013-09-01 06:19:00,
2013-08-31 20:24:00,76.8,68.4,29.96,ESE,114,0.0,3.0,75,0.00,,,0.00,meteohub,2013-09-01 06:24:00,
2013-08-31 20:29:00,76.6,68.5,29.96,NE,48,0.0,1.0,76,0.00,,,0.00,meteohub,2013-09-01 06:29:00,
2013-08-31 20:34:00,76.5,68.4,29.96,SE,142,0.0,1.0,76,0.00,,,0.00,meteohub,2013-09-01 06:34:00,
2013-08-31 20:39:00,76.5,68.4,29.96,SE,142,1.0,1.0,76,0.00,,,0.00,meteohub,2013-09-01 06:39:00,
2013-08-31 20:44:00,76.3,68.2,29.96,SE,136,0.0,1.0,76,0.00,,,0.00,meteohub,2013-09-01 06:44:00,
2013-08-31 20:49:00,76.1,68.4,29.97,SE,133,1.0,1.0,77,0.00,,,0.00,meteohub,2013-09-01 06:49:00,
2013-08-31 20:54:00,75.9,68.2,29.97,SE,143,1.0,1.0,77,0.00,,,0.00,meteohub,2013-09-01 06:54:00,
2013-08-31 20:59:00,75.9,68.2,29.97,SSE,148,0.0,1.0,77,0.00,,,0.00,meteohub,2013-09-01 06:59:00,
2013-08-31 21:04:00,75.9,68.2,29.97,SE,141,0.0,3.0,77,0.00,,,0.00,meteohub,2013-09-01 07:04:00,
2013-08-31 21:09:00,75.7,68.4,29.98,SSE,150,1.0,3.0,78,0.00,,,0.00,meteohub,2013-09-01 07:09:00,
2013-08-31 21:14:00,75.7,68.4,29.98,SE,134,0.0,2.0,78,0.00,,,0.00,meteohub,2013-09-01 07:14:00,
2013-08-31 21:19:00,75.6,68.2,29.98,SE,129,1.0,2.0,78,0.00,,,0.00,meteohub,2013-09-01 07:19:00,
2013-08-31 21:24:00,75.6,68.2,29.98,SSE,155,0.0,2.0,78,0.00,,,0.00,meteohub,2013-09-01 07:24:00,
2013-08-31 21:30:00,75.4,68.4,29.98,ESE,113,1.0,2.0,79,0.00,,,0.00,meteohub,2013-09-01 07:30:00,
2013-08-31 21:35:00,75.4,68.4,29.98,ESE,117,1.0,2.0,79,0.00,,,0.00,meteohub,2013-09-01 07:35:00,
2013-08-31 21:40:00,75.4,68.4,29.98,ESE,120,3.0,3.0,79,0.00,,,0.00,meteohub,2013-09-01 07:40:00,
2013-08-31 21:45:00,75.6,68.5,29.98,ESE,116,3.0,4.0,79,0.00,,,0.00,meteohub,2013-09-01 07:45:00,
2013-08-31 21:50:00,75.7,68.4,29.98,SE,133,3.0,4.0,78,0.00,,,0.00,meteohub,2013-09-01 07:50:00,
2013-08-31 21:55:00,75.9,68.2,29.98,SE,127,2.0,5.0,77,0.00,,,0.00,meteohub,2013-09-01 07:55:00,
2013-08-31 22:00:00,75.9,68.2,29.98,SE,141,0.0,5.0,77,0.00,,,0.00,meteohub,2013-09-01 08:00:00,
2013-08-31 22:05:00,75.9,68.5,29.98,SSW,212,1.0,4.0,78,0.00,,,0.00,meteohub,2013-09-01 08:05:00,
2013-08-31 22:10:00,75.9,68.5,29.98,SSW,211,0.0,4.0,78,0.00,,,0.00,meteohub,2013-09-01 08:10:00,
2013-08-31 22:15:00,75.7,68.7,29.98,SSW,211,0.0,4.0,79,0.00,,,0.00,meteohub,2013-09-01 08:15:00,
2013-08-31 22:20:00,75.6,68.5,29.98,West,274,1.0,1.0,79,0.00,,,0.00,meteohub,2013-09-01 08:20:00,
2013-08-31 22:25:00,75.4,68.4,29.98,WNW,297,1.0,1.0,79,0.00,,,0.00,meteohub,2013-09-01 08:25:00,
2013-08-31 22:30:00,75.2,68.2,29.98,WNW,296,0.0,1.0,79,0.00,,,0.00,meteohub,2013-09-01 08:30:00,
2013-08-31 22:35:00,75.0,68.4,29.98,ENE,75,1.0,1.0,80,0.00,,,0.00,meteohub,2013-09-01 08:35:00,
2013-08-31 22:40:00,74.8,68.2,29.98,ESE,105,1.0,1.0,80,0.00,,,0.00,meteohub,2013-09-01 08:40:00,
2013-08-31 22:45:00,74.8,68.2,29.98,East,89,0.0,2.0,80,0.00,,,0.00,meteohub,2013-09-01 08:45:00,
2013-08-31 22:50:00,74.8,68.2,29.98,East,101,1.0,2.0,80,0.00,,,0.00,meteohub,2013-09-01 08:50:00,
2013-08-31 22:55:00,74.8,68.2,29.98,ESE,108,1.0,2.0,80,0.00,,,0.00,meteohub,2013-09-01 08:55:00,
2013-08-31 23:00:00,75.0,68.4,29.98,ESE,123,2.0,2.0,80,0.00,,,0.00,meteohub,2013-09-01 09:00:00,
2013-08-31 23:06:00,75.4,68.4,29.98,East,93,2.0,5.0,79,0.00,,,0.00,meteohub,2013-09-01 09:06:00,
2013-08-31 23:11:00,75.2,68.2,29.98,East,96,0.0,5.0,79,0.00,,,0.00,meteohub,2013-09-01 09:11:00,
2013-08-31 23:16:00,75.0,68.0,29.98,East,91,1.0,3.0,79,0.00,,,0.00,meteohub,2013-09-01 09:16:00,
2013-08-31 23:21:00,74.8,68.2,29.98,ENE,59,1.0,3.0,80,0.00,,,0.00,meteohub,2013-09-01 09:21:00,
2013-08-31 23:26:00,74.7,68.0,29.98,ENE,59,1.0,2.0,80,0.00,,,0.00,meteohub,2013-09-01 09:26:00,
2013-08-31 23:31:00,74.7,68.0,29.98,East,97,1.0,2.0,80,0.00,,,0.00,meteohub,2013-09-01 09:31:00,
2013-08-31 23:36:00,74.3,67.6,29.98,East,98,0.0,2.0,80,0.00,,,0.00,meteohub,2013-09-01 09:36:00,
2013-08-31 23:41:00,74.1,67.6,29.98,East,98,2.0,2.0,80,0.00,,,0.00,meteohub,2013-09-01 09:41:00,
2013-08-31 23:46:00,73.9,67.5,29.98,ESE,109,2.0,3.0,80,0.00,,,0.00,meteohub,2013-09-01 09:46:00,
2013-08-31 23:51:00,73.9,67.5,29.98,East,86,2.0,3.0,80,0.00,,,0.00,meteohub,2013-09-01 09:51:00,
2013-08-31 23:56:00,73.9,67.5,29.97,ESE,122,1.0,4.0,80,0.00,,,0.00,meteohub,2013-09-01 09:56:00,